createdAt,value
2022-10-14T00:00:49.757Z,2.55
2022-10-14T00:03:20.141Z,2.33
2022-10-14T00:05:50.315Z,2.72
2022-10-14T00:08:20.221Z,2.83
2022-10-14T00:10:50.128Z,2.40
2022-10-14T00:13:20.331Z,3.03
2022-10-14T00:15:50.317Z,3.30
2022-10-14T00:18:20.826Z,2.30
2022-10-14T00:20:57.145Z,2.15
2022-10-14T00:23:27.357Z,2.17
2022-10-14T00:25:57.374Z,2.30
2022-10-14T00:28:32.750Z,2.85
2022-10-14T00:31:03.925Z,2.65
2022-10-14T00:33:34.774Z,2.40
2022-10-14T00:36:05.504Z,2.00
2022-10-14T00:38:38.544Z,3.15
2022-10-14T00:41:09.769Z,2.17
2022-10-14T00:43:54.476Z,2.20
2022-10-14T00:46:25.376Z,2.08
2022-10-14T00:49:01.799Z,2.38
2022-10-14T00:51:32.508Z,2.03
2022-10-14T00:54:02.744Z,2.58
2022-10-14T00:56:32.852Z,2.60
2022-10-14T00:59:02.864Z,3.63
2022-10-14T01:01:32.865Z,3.22
2022-10-14T01:04:03.224Z,3.20
2022-10-14T01:06:36.561Z,4.35
2022-10-14T01:09:08.785Z,4.68
2022-10-14T01:11:44.202Z,4.40
2022-10-14T01:14:18.880Z,3.42
2022-10-14T01:17:08.482Z,3.75
2022-10-14T01:19:55.214Z,4.57
2022-10-14T01:22:38.755Z,4.15
2022-10-14T01:25:30.592Z,4.75
2022-10-14T01:28:20.044Z,3.83
2022-10-14T01:30:54.007Z,4.13
2022-10-14T01:33:30.876Z,4.22
2022-10-14T01:36:10.002Z,4.57
2022-10-14T01:38:44.601Z,4.15
2022-10-14T01:41:21.686Z,3.95
2022-10-14T01:43:57.832Z,3.33
2022-10-14T01:46:27.963Z,4.07
2022-10-14T01:48:59.741Z,3.70
2022-10-14T01:51:30.953Z,3.97
2022-10-14T01:54:27.562Z,4.27
2022-10-14T01:56:57.550Z,3.70
2022-10-14T01:59:27.642Z,3.20
2022-10-14T02:01:57.935Z,3.45
2022-10-14T02:04:28.389Z,3.25
2022-10-14T02:07:01.372Z,2.95
2022-10-14T02:09:35.200Z,3.10
2022-10-14T02:12:08.567Z,3.75
2022-10-14T02:14:47.168Z,2.67
2022-10-14T02:17:17.423Z,3.60
2022-10-14T02:19:59.900Z,3.95
2022-10-14T02:25:18.209Z,3.13
2022-10-14T02:27:48.893Z,3.15
2022-10-14T02:30:19.252Z,2.63
2022-10-14T02:32:53.799Z,3.30
2022-10-14T02:35:24.479Z,2.75
2022-10-14T02:37:56.031Z,3.08
2022-10-14T02:40:29.215Z,2.70
2022-10-14T02:42:59.588Z,2.50
2022-10-14T02:45:29.519Z,2.80
2022-10-14T02:47:59.449Z,2.85
2022-10-14T02:50:29.494Z,2.80
2022-10-14T02:52:59.544Z,2.83
2022-10-14T02:55:29.497Z,2.80
2022-10-14T02:57:59.542Z,2.75
2022-10-14T03:00:29.589Z,2.35
2022-10-14T03:02:59.761Z,3.45
2022-10-14T03:05:31.867Z,2.20
2022-10-14T03:08:01.960Z,2.60
2022-10-14T03:10:34.024Z,2.63
2022-10-14T03:13:05.212Z,2.22
2022-10-14T03:15:41.401Z,2.28
2022-10-14T03:20:48.661Z,2.60
2022-10-14T03:23:23.947Z,2.83
2022-10-14T03:25:56.588Z,2.10
2022-10-14T03:28:31.035Z,2.28
2022-10-14T03:31:15.983Z,2.72
2022-10-14T03:34:08.807Z,1.88
2022-10-14T03:36:40.390Z,2.50
2022-10-14T03:39:12.122Z,3.17
2022-10-14T03:41:52.412Z,2.15
2022-10-14T03:44:29.989Z,2.60
2022-10-14T03:47:25.890Z,2.08
2022-10-14T03:49:56.248Z,1.95
2022-10-14T03:52:46.268Z,2.30
2022-10-14T03:55:28.222Z,2.00
2022-10-14T03:57:58.678Z,2.10
2022-10-14T04:00:29.486Z,1.95
2022-10-14T04:03:16.586Z,2.03
2022-10-14T04:05:47.610Z,2.78
2022-10-14T04:08:21.071Z,1.95
2022-10-14T04:10:59.932Z,2.10
2022-10-14T04:13:34.019Z,1.80
2022-10-14T04:16:08.417Z,1.65
2022-10-14T04:19:00.216Z,1.95
2022-10-14T04:21:37.719Z,2.17
2022-10-14T04:24:09.595Z,1.95
2022-10-14T04:26:47.427Z,1.60
2022-10-14T04:29:24.990Z,1.92
2022-10-14T04:32:02.204Z,1.90
2022-10-14T04:34:32.945Z,2.00
2022-10-14T04:37:03.233Z,1.92
2022-10-14T04:40:05.743Z,2.58
2022-10-14T04:42:42.144Z,3.75
2022-10-14T04:45:21.696Z,2.65
2022-10-14T04:47:58.216Z,4.32
2022-10-14T04:50:30.059Z,5.85
2022-10-14T04:53:35.186Z,5.72
2022-10-14T04:56:28.096Z,5.15
2022-10-14T04:59:03.002Z,5.13
2022-10-14T05:01:51.139Z,4.05
2022-10-14T05:04:21.428Z,4.93
2022-10-14T05:09:26.053Z,3.47
2022-10-14T05:11:56.281Z,3.00
2022-10-14T05:14:34.620Z,3.33
2022-10-14T05:17:15.863Z,3.53
2022-10-14T05:19:46.003Z,2.35
2022-10-14T05:22:17.506Z,3.67
2022-10-14T05:24:49.206Z,2.72
2022-10-14T05:27:19.716Z,4.75
2022-10-14T05:29:50.204Z,3.65
2022-10-14T05:32:20.746Z,2.58
2022-10-14T05:34:53.672Z,2.90
2022-10-14T05:37:32.663Z,2.95
2022-10-14T05:40:02.904Z,3.05
2022-10-14T05:42:36.352Z,2.35
2022-10-14T05:45:06.980Z,2.03
2022-10-14T05:47:40.908Z,1.98
2022-10-14T05:50:16.708Z,2.25
2022-10-14T05:52:48.405Z,2.28
2022-10-14T05:55:32.565Z,1.98
2022-10-14T05:58:05.377Z,1.95
2022-10-14T06:00:40.746Z,2.10
2022-10-14T06:03:21.876Z,2.45
2022-10-14T06:05:52.924Z,1.80
2022-10-14T06:08:23.172Z,1.83
2022-10-14T06:10:53.710Z,1.70
2022-10-14T06:13:23.824Z,1.98
2022-10-14T06:15:54.875Z,1.63
2022-10-14T06:18:24.921Z,1.75
2022-10-14T06:20:56.979Z,1.70
2022-10-14T06:23:27.575Z,1.40
2022-10-14T06:25:58.858Z,1.30
2022-10-14T06:28:28.865Z,2.45
2022-10-14T06:30:59.149Z,1.73
2022-10-14T06:33:32.448Z,1.40
2022-10-14T06:36:07.189Z,1.27
2022-10-14T06:38:37.109Z,1.35
2022-10-14T06:41:08.022Z,1.45
2022-10-14T06:43:38.059Z,1.35
2022-10-14T06:46:08.645Z,1.25
2022-10-14T06:48:45.805Z,1.35
2022-10-14T06:51:19.500Z,1.58
2022-10-14T06:53:49.624Z,1.02
2022-10-14T06:56:19.713Z,1.50
2022-10-14T06:58:49.764Z,1.20
2022-10-14T07:01:19.852Z,1.40
2022-10-14T07:03:52.823Z,1.27
2022-10-14T07:06:26.749Z,1.20
2022-10-14T07:08:58.744Z,2.10
2022-10-14T07:11:28.848Z,1.42
2022-10-14T07:13:59.043Z,1.25
2022-10-14T07:16:30.417Z,1.02
2022-10-14T07:19:00.618Z,1.10
2022-10-14T07:21:31.395Z,1.10
2022-10-14T07:24:04.363Z,1.10
2022-10-14T07:26:35.160Z,1.50
2022-10-14T07:29:06.546Z,1.20
2022-10-14T07:31:37.470Z,1.23
2022-10-14T07:34:07.686Z,1.45
2022-10-14T07:36:38.983Z,1.20
2022-10-14T07:39:09.036Z,1.20
2022-10-14T07:41:39.505Z,1.15
2022-10-14T07:44:10.854Z,1.33
2022-10-14T07:46:42.484Z,2.05
2022-10-14T07:49:20.094Z,1.20
2022-10-14T07:51:50.246Z,1.20
2022-10-14T07:54:21.319Z,1.58
2022-10-14T07:56:52.893Z,0.98
2022-10-14T07:59:23.118Z,1.27
2022-10-14T08:01:54.316Z,1.02
2022-10-14T08:04:25.871Z,0.80
2022-10-14T08:06:58.766Z,1.63
2022-10-14T08:09:29.616Z,1.33
2022-10-14T08:12:00.269Z,1.10
2022-10-14T08:14:32.987Z,1.52
2022-10-14T08:17:04.728Z,1.55
2022-10-14T08:19:35.031Z,1.20
2022-10-14T08:22:05.395Z,1.08
2022-10-14T08:24:35.364Z,1.08
2022-10-14T08:27:08.319Z,1.20
2022-10-14T08:29:38.553Z,1.40
2022-10-14T08:32:08.556Z,1.13
2022-10-14T08:34:38.449Z,0.98
2022-10-14T08:37:08.967Z,1.30
2022-10-14T08:39:39.033Z,0.95
2022-10-14T08:42:17.470Z,1.05
2022-10-14T08:45:03.598Z,2.25
2022-10-14T08:47:37.785Z,1.08
2022-10-14T08:50:21.208Z,1.00
2022-10-14T08:52:58.779Z,1.15
2022-10-14T08:55:28.921Z,0.98
2022-10-14T08:58:18.489Z,1.00
2022-10-14T09:00:49.298Z,1.45
2022-10-14T09:03:34.412Z,0.80
2022-10-14T09:06:13.798Z,1.17
2022-10-14T09:08:48.198Z,0.80
2022-10-14T09:11:25.603Z,0.70
2022-10-14T09:13:57.852Z,1.00
2022-10-14T09:16:29.396Z,0.80
2022-10-14T09:19:00.190Z,0.80
2022-10-14T09:21:52.967Z,0.82
2022-10-14T09:24:46.068Z,0.98
2022-10-14T09:27:20.057Z,0.82
2022-10-14T09:29:53.356Z,1.00
2022-10-14T09:32:23.671Z,1.25
2022-10-14T09:34:54.074Z,0.77
2022-10-14T09:37:24.366Z,0.88
2022-10-14T09:39:55.719Z,1.00
2022-10-14T09:42:26.959Z,0.60
2022-10-14T09:45:13.763Z,0.97
2022-10-14T09:47:46.750Z,0.70
2022-10-14T09:50:27.181Z,0.95
2022-10-14T09:53:05.367Z,0.98
2022-10-14T09:55:38.061Z,0.85
2022-10-14T09:58:09.474Z,1.20
2022-10-14T10:00:39.563Z,0.73
2022-10-14T10:03:11.589Z,0.82
2022-10-14T10:05:44.944Z,0.80
2022-10-14T10:08:15.263Z,1.38
2022-10-14T10:11:02.121Z,1.02
2022-10-14T10:13:41.263Z,0.60
2022-10-14T10:16:20.151Z,0.68
2022-10-14T10:18:50.559Z,0.88
2022-10-14T10:21:26.894Z,1.65
2022-10-14T10:23:58.231Z,0.95
2022-10-14T10:26:35.214Z,0.88
2022-10-14T10:29:06.423Z,1.30
2022-10-14T10:31:54.275Z,1.27
2022-10-14T10:34:27.322Z,1.20
2022-10-14T10:37:01.388Z,0.98
2022-10-14T10:39:42.194Z,1.20
2022-10-14T10:42:12.534Z,1.35
2022-10-14T10:44:45.890Z,1.13
2022-10-14T10:47:19.097Z,0.82
2022-10-14T10:49:52.966Z,0.90
2022-10-14T10:52:35.529Z,1.30
2022-10-14T10:57:53.447Z,1.00
2022-10-14T11:03:21.866Z,1.75
2022-10-14T11:05:59.717Z,1.30
2022-10-14T11:09:06.885Z,1.30
2022-10-14T11:12:08.396Z,1.20
2022-10-14T11:14:51.212Z,1.70
2022-10-14T11:17:29.747Z,1.10
2022-10-14T11:20:03.097Z,1.10
2022-10-14T11:22:52.303Z,1.00
2022-10-14T11:25:31.066Z,1.30
2022-10-14T11:28:03.979Z,1.25
2022-10-14T11:30:40.410Z,1.25
2022-10-14T11:33:29.076Z,1.45
2022-10-14T11:36:15.918Z,1.60
2022-10-14T11:38:45.865Z,1.33
2022-10-14T11:41:22.439Z,1.27
2022-10-14T11:43:52.438Z,1.35
2022-10-14T11:46:23.607Z,1.50
2022-10-14T11:48:54.729Z,1.20
2022-10-14T11:51:34.780Z,1.40
2022-10-14T11:54:19.034Z,1.70
2022-10-14T11:56:53.293Z,1.52
2022-10-14T11:59:35.375Z,1.50
2022-10-14T12:02:17.678Z,1.50
2022-10-14T12:07:23.536Z,1.85
2022-10-14T12:09:57.289Z,2.00
2022-10-14T12:12:30.762Z,1.63
2022-10-14T12:15:02.329Z,1.83
2022-10-14T12:17:40.071Z,1.98
2022-10-14T12:20:17.669Z,2.17
2022-10-14T12:22:48.921Z,1.60
2022-10-14T12:25:19.641Z,1.60
2022-10-14T12:27:49.808Z,1.52
2022-10-14T12:30:36.697Z,1.65
2022-10-14T12:33:15.801Z,2.13
2022-10-14T12:35:47.993Z,2.15
2022-10-14T12:40:50.390Z,1.90
2022-10-14T12:43:27.663Z,2.53
2022-10-14T12:46:12.808Z,1.77
2022-10-14T12:48:47.315Z,2.40
2022-10-14T12:51:21.549Z,2.28
2022-10-14T12:54:08.291Z,2.17
2022-10-14T12:56:42.553Z,1.70
2022-10-14T12:59:21.259Z,2.33
2022-10-14T13:01:56.590Z,2.30
2022-10-14T13:04:27.597Z,2.38
2022-10-14T13:07:43.311Z,2.50
2022-10-14T13:10:47.320Z,2.85
2022-10-14T13:13:36.098Z,2.83
2022-10-14T13:16:09.145Z,2.60
2022-10-14T13:18:50.658Z,3.38
2022-10-14T13:21:43.648Z,2.38
2022-10-14T13:24:13.635Z,2.28
2022-10-14T13:26:52.874Z,2.63
2022-10-14T13:29:22.935Z,2.75
2022-10-14T13:32:02.442Z,3.03
2022-10-14T13:34:50.838Z,2.83
2022-10-14T13:37:20.745Z,3.05
2022-10-14T13:39:50.675Z,2.70
2022-10-14T13:42:24.793Z,3.28
2022-10-14T13:44:55.554Z,3.03
2022-10-14T13:47:25.571Z,2.70
2022-10-14T13:49:57.151Z,3.10
2022-10-14T13:52:27.521Z,3.80
2022-10-14T13:55:16.043Z,3.38
2022-10-14T13:58:18.025Z,3.03
2022-10-14T14:00:48.129Z,3.03
2022-10-14T14:03:18.206Z,3.42
2022-10-14T14:05:48.351Z,3.38
2022-10-14T14:11:18.100Z,3.40
2022-10-14T14:14:11.722Z,3.67
2022-10-14T14:17:00.567Z,3.63
2022-10-14T14:19:31.320Z,3.78
2022-10-14T14:22:08.067Z,4.25
2022-10-14T14:24:38.010Z,4.22
2022-10-14T14:27:07.988Z,3.97
2022-10-14T14:29:40.145Z,3.58
2022-10-14T14:32:10.106Z,4.10
2022-10-14T14:34:40.501Z,3.63
2022-10-14T14:37:40.129Z,4.20
2022-10-14T14:40:09.983Z,3.60
2022-10-14T14:42:43.768Z,4.15
2022-10-14T14:45:21.548Z,4.13
2022-10-14T14:47:53.868Z,3.70
2022-10-14T14:50:32.213Z,3.88
2022-10-14T14:53:06.431Z,4.30
2022-10-14T14:55:42.803Z,4.35
2022-10-14T14:58:19.617Z,4.05
2022-10-14T15:00:51.091Z,4.35
2022-10-14T15:03:21.126Z,3.75
2022-10-14T15:05:52.083Z,4.43
2022-10-14T15:08:25.668Z,5.03
2022-10-14T15:10:56.928Z,4.60
2022-10-14T15:13:42.766Z,4.15
2022-10-14T15:16:13.052Z,4.65
2022-10-14T15:18:44.707Z,4.70
2022-10-14T15:21:15.033Z,4.00
2022-10-14T15:23:48.075Z,4.38
2022-10-14T15:26:37.007Z,3.97
2022-10-14T15:29:10.115Z,3.63
2022-10-14T15:31:40.395Z,4.50
2022-10-14T15:34:25.425Z,5.13
2022-10-14T15:36:55.511Z,4.30
2022-10-14T15:39:25.977Z,3.35
2022-10-14T15:41:56.045Z,4.32
2022-10-14T15:44:26.422Z,3.78
2022-10-14T15:47:14.861Z,3.85
2022-10-14T15:49:47.325Z,4.30
2022-10-14T15:52:19.454Z,4.13
2022-10-14T15:54:52.119Z,4.25
2022-10-14T15:57:23.469Z,4.28
2022-10-14T15:59:54.430Z,3.85
2022-10-14T16:02:31.374Z,4.00
2022-10-14T16:07:51.640Z,3.95
2022-10-14T16:10:22.210Z,4.45
2022-10-14T16:12:52.257Z,4.10
2022-10-14T16:15:24.088Z,3.55
2022-10-14T16:17:54.175Z,4.60
2022-10-14T16:20:24.450Z,4.03
2022-10-14T16:22:54.424Z,4.03
2022-10-14T16:25:34.656Z,4.47
2022-10-14T16:28:10.312Z,4.03
2022-10-14T16:30:47.179Z,4.40
2022-10-14T16:33:17.850Z,3.78
2022-10-14T16:35:55.327Z,4.10
2022-10-14T16:38:25.409Z,3.72
2022-10-14T16:40:58.872Z,3.75
2022-10-14T16:43:29.316Z,3.90
2022-10-14T16:46:04.654Z,3.88
2022-10-14T16:48:35.718Z,3.97
2022-10-14T16:51:06.019Z,4.53
2022-10-14T16:53:42.483Z,2.90
2022-10-14T16:56:37.704Z,3.97
2022-10-14T16:59:11.463Z,4.07
2022-10-14T17:01:41.568Z,3.70
2022-10-14T17:04:15.030Z,4.18
2022-10-14T17:06:45.156Z,4.57
2022-10-14T17:09:18.216Z,4.18
2022-10-14T17:11:48.337Z,3.75
2022-10-14T17:14:19.513Z,3.30
2022-10-14T17:16:53.366Z,3.88
2022-10-14T17:19:25.129Z,3.95
2022-10-14T17:21:55.271Z,3.65
2022-10-14T17:24:25.603Z,3.80
2022-10-14T17:26:55.555Z,3.22
2022-10-14T17:29:26.018Z,4.43
2022-10-14T17:31:56.423Z,3.88
2022-10-14T17:34:26.665Z,4.00
2022-10-14T17:36:56.618Z,3.53
2022-10-14T17:39:29.543Z,4.00
2022-10-14T17:42:00.015Z,3.78
2022-10-14T17:44:30.614Z,3.78
2022-10-14T17:47:01.818Z,4.07
2022-10-14T17:49:32.650Z,4.03
2022-10-14T17:52:03.426Z,3.70
2022-10-14T17:54:33.697Z,3.85
2022-10-14T17:57:03.685Z,4.18
2022-10-14T17:59:34.004Z,3.50
2022-10-14T18:02:04.219Z,3.70
2022-10-14T18:04:34.420Z,3.55
2022-10-14T18:07:04.427Z,3.42
2022-10-14T18:09:35.862Z,3.72
2022-10-14T18:12:10.071Z,3.20
2022-10-14T18:14:41.705Z,3.45
2022-10-14T18:17:14.413Z,3.10
2022-10-14T18:19:47.263Z,3.22
2022-10-14T18:22:21.581Z,3.53
2022-10-14T18:24:51.586Z,3.58
2022-10-14T18:27:21.764Z,3.70
2022-10-14T18:29:52.590Z,3.13
2022-10-14T18:32:22.718Z,3.05
2022-10-14T18:34:53.184Z,2.85
2022-10-14T18:37:23.053Z,3.42
2022-10-14T18:39:53.710Z,3.47
2022-10-14T18:42:23.880Z,3.38
2022-10-14T18:44:54.577Z,3.03
2022-10-14T18:47:24.578Z,3.20
2022-10-14T18:49:54.892Z,3.60
2022-10-14T18:52:25.205Z,3.28
2022-10-14T18:54:55.770Z,4.00
2022-10-14T18:57:26.104Z,3.65
2022-10-14T18:59:56.444Z,3.20
2022-10-14T19:02:26.377Z,3.33
2022-10-14T19:04:57.269Z,3.33
2022-10-14T19:07:28.122Z,3.33
2022-10-14T19:09:58.929Z,3.38
2022-10-14T19:12:44.156Z,2.97
2022-10-14T19:15:14.209Z,2.90
2022-10-14T19:17:44.791Z,3.03
2022-10-14T19:20:18.122Z,2.88
2022-10-14T19:22:48.110Z,3.55
2022-10-14T19:25:21.663Z,3.28
2022-10-14T19:27:54.270Z,2.85
2022-10-14T19:32:53.874Z,2.75
2022-10-14T19:35:24.170Z,3.00
2022-10-14T19:37:54.039Z,2.92
2022-10-14T19:40:24.351Z,2.83
2022-10-14T19:42:54.279Z,2.78
2022-10-14T19:45:24.244Z,2.92
2022-10-14T19:47:54.164Z,2.85
2022-10-14T19:50:24.070Z,2.15
2022-10-14T19:52:53.942Z,2.63
2022-10-14T19:55:23.820Z,2.17
2022-10-14T19:57:58.641Z,2.65
2022-10-14T20:00:29.610Z,2.63
2022-10-14T20:02:59.535Z,2.95
2022-10-14T20:05:32.923Z,2.40
2022-10-14T20:08:06.233Z,2.78
2022-10-14T20:10:36.205Z,2.58
2022-10-14T20:13:06.098Z,2.30
2022-10-14T20:15:36.032Z,2.13
2022-10-14T20:18:06.062Z,2.60
2022-10-14T20:20:36.427Z,1.90
2022-10-14T20:23:06.375Z,2.53
2022-10-14T20:25:37.500Z,2.35
2022-10-14T20:28:07.646Z,2.40
2022-10-14T20:30:40.727Z,2.47
2022-10-14T20:33:11.104Z,2.45
2022-10-14T20:35:41.470Z,2.30
2022-10-14T20:38:11.502Z,2.10
2022-10-14T20:40:42.375Z,2.17
2022-10-14T20:43:12.433Z,2.20
2022-10-14T20:45:42.716Z,2.15
2022-10-14T20:48:12.623Z,2.15
2022-10-14T20:50:43.761Z,2.28
2022-10-14T20:53:13.997Z,2.08
2022-10-14T20:55:44.650Z,1.92
2022-10-14T20:58:14.771Z,2.45
2022-10-14T21:00:45.689Z,2.42
2022-10-14T21:03:16.485Z,1.88
2022-10-14T21:05:46.576Z,2.38
2022-10-14T21:08:16.602Z,2.08
2022-10-14T21:10:46.693Z,2.00
2022-10-14T21:13:16.645Z,2.03
2022-10-14T21:15:46.568Z,2.47
2022-10-14T21:18:16.445Z,2.03
2022-10-14T21:20:46.412Z,2.05
2022-10-14T21:23:16.476Z,1.90
2022-10-14T21:25:46.413Z,1.95
2022-10-14T21:28:16.350Z,2.20
2022-10-14T21:30:46.376Z,1.58
2022-10-14T21:33:16.306Z,1.65
2022-10-14T21:35:46.295Z,1.63
2022-10-14T21:38:16.183Z,1.83
2022-10-14T21:40:46.131Z,1.90
2022-10-14T21:43:16.092Z,2.33
2022-10-14T21:45:46.034Z,1.88
2022-10-14T21:48:16.374Z,1.88
2022-10-14T21:50:46.452Z,1.90
2022-10-14T21:53:17.223Z,1.95
2022-10-14T21:55:47.272Z,2.08
2022-10-14T21:58:17.210Z,1.98
2022-10-14T22:00:47.245Z,1.58
2022-10-14T22:03:18.915Z,2.00
2022-10-14T22:05:49.039Z,1.50
2022-10-14T22:08:24.215Z,2.03
2022-10-14T22:10:54.993Z,1.85
2022-10-14T22:13:26.701Z,1.58
2022-10-14T22:15:56.852Z,1.60
2022-10-14T22:18:27.412Z,1.67
2022-10-14T22:21:06.194Z,1.42
2022-10-14T22:23:36.577Z,1.70
2022-10-14T22:26:06.578Z,1.85
2022-10-14T22:28:36.797Z,1.60
2022-10-14T22:31:11.336Z,1.65
2022-10-14T22:33:44.866Z,1.55
2022-10-14T22:36:19.420Z,1.90
2022-10-14T22:38:53.298Z,1.58
2022-10-14T22:41:24.165Z,1.75
2022-10-14T22:43:55.145Z,1.55
2022-10-14T22:46:26.212Z,1.60
2022-10-14T22:48:59.577Z,1.63
2022-10-14T22:51:31.410Z,1.45
2022-10-14T22:54:01.682Z,1.98
2022-10-14T22:56:31.865Z,1.73
2022-10-14T22:59:02.606Z,1.95
2022-10-14T23:01:33.526Z,1.65
2022-10-14T23:04:04.072Z,1.70
2022-10-14T23:06:34.383Z,1.65
2022-10-14T23:09:04.363Z,2.00
2022-10-14T23:11:34.788Z,1.60
2022-10-14T23:14:07.101Z,1.88
2022-10-14T23:16:38.024Z,2.00
2022-10-14T23:19:08.592Z,2.00
2022-10-14T23:21:39.821Z,2.00
2022-10-14T23:24:10.371Z,1.75
2022-10-14T23:26:40.584Z,1.90
2022-10-14T23:29:12.543Z,1.92
2022-10-14T23:31:43.622Z,1.92
2022-10-14T23:34:14.746Z,1.92
2022-10-14T23:36:45.186Z,1.90
2022-10-14T23:39:15.359Z,1.60
2022-10-14T23:41:45.939Z,1.92
2022-10-14T23:44:16.282Z,1.58
2022-10-14T23:46:47.750Z,2.25
2022-10-14T23:49:26.222Z,1.97
2022-10-14T23:51:57.958Z,1.65
2022-10-14T23:54:28.269Z,2.13
2022-10-14T23:56:58.463Z,1.75
2022-10-14T23:59:28.443Z,1.85
